sensor_id;sensor_type;location;lat;lon;timestamp;P1;durP1;ratioP1;P2;durP2;ratioP2
44564;SDS011;30275;51.822;-0.326;2023-03-14T00:01:15;17.77;;;4.50;;
44564;SDS011;30275;51.822;-0.326;2023-03-14T00:03:42;15.05;;;3.42;;
44564;SDS011;30275;51.822;-0.326;2023-03-14T00:06:09;23.15;;;4.95;;
44564;SDS011;30275;51.822;-0.326;2023-03-14T00:08:35;12.38;;;2.65;;
44564;SDS011;30275;51.822;-0.326;2023-03-14T00:11:05;17.23;;;4.15;;
44564;SDS011;30275;51.822;-0.326;2023-03-14T00:13:34;18.45;;;3.55;;
44564;SDS011;30275;51.822;-0.326;2023-03-14T00:16:10;13.38;;;4.00;;
44564;SDS011;30275;51.822;-0.326;2023-03-14T00:18:37;12.52;;;3.47;;
44564;SDS011;30275;51.822;-0.326;2023-03-14T00:21:04;15.05;;;3.28;;
44564;SDS011;30275;51.822;-0.326;2023-03-14T00:23:32;17.33;;;3.95;;
44564;SDS011;30275;51.822;-0.326;2023-03-14T00:26:02;10.70;;;3.03;;
44564;SDS011;30275;51.822;-0.326;2023-03-14T00:28:29;15.07;;;3.75;;
44564;SDS011;30275;51.822;-0.326;2023-03-14T00:30:55;4.65;;;1.10;;
44564;SDS011;30275;51.822;-0.326;2023-03-14T00:33:21;1.17;;;0.80;;
44564;SDS011;30275;51.822;-0.326;2023-03-14T00:35:54;3.80;;;1.00;;
44564;SDS011;30275;51.822;-0.326;2023-03-14T00:38:24;1.77;;;1.13;;
44564;SDS011;30275;51.822;-0.326;2023-03-14T00:40:50;1.80;;;1.58;;
44564;SDS011;30275;51.822;-0.326;2023-03-14T00:43:17;3.22;;;1.98;;
44564;SDS011;30275;51.822;-0.326;2023-03-14T00:45:43;2.08;;;1.80;;
44564;SDS011;30275;51.822;-0.326;2023-03-14T00:48:09;4.32;;;2.17;;
44564;SDS011;30275;51.822;-0.326;2023-03-14T00:50:34;2.33;;;1.75;;
44564;SDS011;30275;51.822;-0.326;2023-03-14T00:53:00;5.32;;;2.30;;
44564;SDS011;30275;51.822;-0.326;2023-03-14T00:55:26;3.13;;;1.95;;
44564;SDS011;30275;51.822;-0.326;2023-03-14T00:57:51;2.42;;;1.80;;
44564;SDS011;30275;51.822;-0.326;2023-03-14T01:00:17;2.55;;;1.58;;
44564;SDS011;30275;51.822;-0.326;2023-03-14T01:02:43;3.22;;;1.40;;
44564;SDS011;30275;51.822;-0.326;2023-03-14T01:05:09;3.28;;;1.60;;
44564;SDS011;30275;51.822;-0.326;2023-03-14T01:07:37;2.45;;;1.70;;
44564;SDS011;30275;51.822;-0.326;2023-03-14T01:10:03;2.17;;;1.70;;
44564;SDS011;30275;51.822;-0.326;2023-03-14T01:12:30;3.15;;;1.55;;
44564;SDS011;30275;51.822;-0.326;2023-03-14T01:14:57;6.18;;;1.95;;
44564;SDS011;30275;51.822;-0.326;2023-03-14T01:17:23;2.90;;;1.60;;
44564;SDS011;30275;51.822;-0.326;2023-03-14T01:19:48;6.85;;;1.95;;
44564;SDS011;30275;51.822;-0.326;2023-03-14T01:22:14;2.92;;;1.80;;
44564;SDS011;30275;51.822;-0.326;2023-03-14T01:24:40;2.30;;;1.58;;
44564;SDS011;30275;51.822;-0.326;2023-03-14T01:27:06;4.80;;;1.90;;
44564;SDS011;30275;51.822;-0.326;2023-03-14T01:29:31;5.45;;;1.98;;
44564;SDS011;30275;51.822;-0.326;2023-03-14T01:31:57;8.10;;;1.90;;
44564;SDS011;30275;51.822;-0.326;2023-03-14T01:34:22;5.53;;;2.80;;
44564;SDS011;30275;51.822;-0.326;2023-03-14T01:36:48;2.88;;;1.95;;
44564;SDS011;30275;51.822;-0.326;2023-03-14T01:39:14;5.45;;;1.88;;
44564;SDS011;30275;51.822;-0.326;2023-03-14T01:41:39;5.72;;;2.08;;
44564;SDS011;30275;51.822;-0.326;2023-03-14T01:44:08;4.03;;;2.00;;
44564;SDS011;30275;51.822;-0.326;2023-03-14T01:46:38;1.98;;;1.60;;
44564;SDS011;30275;51.822;-0.326;2023-03-14T01:56:44;3.38;;;1.73;;
44564;SDS011;30275;51.822;-0.326;2023-03-14T01:59:13;5.88;;;1.70;;
44564;SDS011;30275;51.822;-0.326;2023-03-14T02:01:40;9.18;;;2.20;;
44564;SDS011;30275;51.822;-0.326;2023-03-14T02:04:08;4.43;;;1.60;;
44564;SDS011;30275;51.822;-0.326;2023-03-14T02:06:37;3.03;;;1.45;;
44564;SDS011;30275;51.822;-0.326;2023-03-14T02:09:23;7.45;;;1.40;;
44564;SDS011;30275;51.822;-0.326;2023-03-14T02:11:50;6.00;;;1.58;;
44564;SDS011;30275;51.822;-0.326;2023-03-14T02:14:22;5.22;;;1.60;;
44564;SDS011;30275;51.822;-0.326;2023-03-14T02:16:54;1.50;;;1.40;;
44564;SDS011;30275;51.822;-0.326;2023-03-14T02:19:21;4.38;;;1.52;;
44564;SDS011;30275;51.822;-0.326;2023-03-14T02:22:02;1.90;;;1.00;;
44564;SDS011;30275;51.822;-0.326;2023-03-14T02:27:26;2.58;;;1.35;;
44564;SDS011;30275;51.822;-0.326;2023-03-14T02:30:03;2.40;;;0.98;;
44564;SDS011;30275;51.822;-0.326;2023-03-14T02:32:35;3.42;;;1.20;;
44564;SDS011;30275;51.822;-0.326;2023-03-14T02:35:06;5.47;;;1.20;;
44564;SDS011;30275;51.822;-0.326;2023-03-14T02:37:40;3.17;;;1.05;;
44564;SDS011;30275;51.822;-0.326;2023-03-14T02:40:10;5.57;;;2.08;;
44564;SDS011;30275;51.822;-0.326;2023-03-14T02:42:36;6.38;;;1.40;;
44564;SDS011;30275;51.822;-0.326;2023-03-14T02:47:33;3.58;;;1.52;;
44564;SDS011;30275;51.822;-0.326;2023-03-14T02:50:02;3.70;;;1.33;;
44564;SDS011;30275;51.822;-0.326;2023-03-14T02:52:31;3.60;;;1.05;;
44564;SDS011;30275;51.822;-0.326;2023-03-14T02:54:56;3.33;;;1.05;;
44564;SDS011;30275;51.822;-0.326;2023-03-14T02:57:22;3.33;;;1.23;;
44564;SDS011;30275;51.822;-0.326;2023-03-14T02:59:47;2.72;;;1.23;;
44564;SDS011;30275;51.822;-0.326;2023-03-14T03:02:13;3.55;;;1.55;;
44564;SDS011;30275;51.822;-0.326;2023-03-14T03:04:39;4.72;;;1.55;;
44564;SDS011;30275;51.822;-0.326;2023-03-14T03:07:04;4.88;;;1.10;;
44564;SDS011;30275;51.822;-0.326;2023-03-14T03:09:30;2.28;;;1.00;;
44564;SDS011;30275;51.822;-0.326;2023-03-14T03:11:55;4.80;;;1.50;;
44564;SDS011;30275;51.822;-0.326;2023-03-14T03:14:21;5.38;;;1.35;;
44564;SDS011;30275;51.822;-0.326;2023-03-14T03:16:47;2.85;;;1.05;;
44564;SDS011;30275;51.822;-0.326;2023-03-14T03:19:12;2.72;;;1.27;;
44564;SDS011;30275;51.822;-0.326;2023-03-14T03:21:38;2.40;;;1.00;;
44564;SDS011;30275;51.822;-0.326;2023-03-14T03:24:04;3.72;;;1.10;;
44564;SDS011;30275;51.822;-0.326;2023-03-14T03:26:32;2.45;;;1.40;;
44564;SDS011;30275;51.822;-0.326;2023-03-14T03:28:59;4.78;;;1.48;;
44564;SDS011;30275;51.822;-0.326;2023-03-14T03:31:25;3.97;;;1.48;;
44564;SDS011;30275;51.822;-0.326;2023-03-14T03:33:50;2.25;;;1.20;;
44564;SDS011;30275;51.822;-0.326;2023-03-14T03:36:20;3.17;;;1.20;;
44564;SDS011;30275;51.822;-0.326;2023-03-14T03:38:47;3.40;;;0.82;;
44564;SDS011;30275;51.822;-0.326;2023-03-14T03:41:13;6.72;;;1.40;;
44564;SDS011;30275;51.822;-0.326;2023-03-14T03:43:39;2.70;;;0.80;;
44564;SDS011;30275;51.822;-0.326;2023-03-14T03:46:05;3.17;;;1.10;;
44564;SDS011;30275;51.822;-0.326;2023-03-14T03:48:31;3.97;;;1.10;;
44564;SDS011;30275;51.822;-0.326;2023-03-14T03:50:57;3.70;;;1.02;;
44564;SDS011;30275;51.822;-0.326;2023-03-14T03:53:23;2.67;;;1.58;;
44564;SDS011;30275;51.822;-0.326;2023-03-14T03:55:48;2.42;;;0.93;;
44564;SDS011;30275;51.822;-0.326;2023-03-14T03:58:14;3.63;;;0.98;;
44564;SDS011;30275;51.822;-0.326;2023-03-14T04:00:39;3.05;;;0.90;;
44564;SDS011;30275;51.822;-0.326;2023-03-14T04:03:05;4.65;;;1.23;;
44564;SDS011;30275;51.822;-0.326;2023-03-14T04:05:31;6.10;;;1.10;;
44564;SDS011;30275;51.822;-0.326;2023-03-14T04:07:59;3.47;;;1.15;;
44564;SDS011;30275;51.822;-0.326;2023-03-14T04:10:24;3.17;;;1.20;;
44564;SDS011;30275;51.822;-0.326;2023-03-14T04:12:50;1.90;;;0.93;;
44564;SDS011;30275;51.822;-0.326;2023-03-14T04:15:17;4.55;;;1.40;;
44564;SDS011;30275;51.822;-0.326;2023-03-14T04:17:42;2.90;;;1.20;;
44564;SDS011;30275;51.822;-0.326;2023-03-14T04:20:08;1.70;;;0.80;;
44564;SDS011;30275;51.822;-0.326;2023-03-14T04:22:40;6.20;;;1.65;;
44564;SDS011;30275;51.822;-0.326;2023-03-14T04:25:05;4.95;;;1.30;;
44564;SDS011;30275;51.822;-0.326;2023-03-14T04:27:31;5.20;;;1.77;;
44564;SDS011;30275;51.822;-0.326;2023-03-14T04:29:57;2.58;;;1.63;;
44564;SDS011;30275;51.822;-0.326;2023-03-14T04:32:23;2.72;;;1.00;;
44564;SDS011;30275;51.822;-0.326;2023-03-14T04:34:48;4.15;;;1.17;;
44564;SDS011;30275;51.822;-0.326;2023-03-14T04:37:14;2.53;;;0.93;;
44564;SDS011;30275;51.822;-0.326;2023-03-14T04:39:39;5.55;;;1.27;;
44564;SDS011;30275;51.822;-0.326;2023-03-14T04:42:05;3.95;;;1.15;;
44564;SDS011;30275;51.822;-0.326;2023-03-14T04:44:31;4.00;;;1.10;;
44564;SDS011;30275;51.822;-0.326;2023-03-14T04:46:56;7.35;;;1.40;;
44564;SDS011;30275;51.822;-0.326;2023-03-14T04:49:22;6.07;;;1.48;;
44564;SDS011;30275;51.822;-0.326;2023-03-14T04:51:48;4.72;;;2.60;;
44564;SDS011;30275;51.822;-0.326;2023-03-14T04:54:16;4.38;;;1.30;;
44564;SDS011;30275;51.822;-0.326;2023-03-14T04:56:42;3.78;;;1.50;;
44564;SDS011;30275;51.822;-0.326;2023-03-14T04:59:08;6.60;;;1.20;;
44564;SDS011;30275;51.822;-0.326;2023-03-14T05:01:34;6.32;;;1.02;;
44564;SDS011;30275;51.822;-0.326;2023-03-14T05:04:00;1.92;;;0.95;;
44564;SDS011;30275;51.822;-0.326;2023-03-14T05:06:25;7.07;;;1.42;;
44564;SDS011;30275;51.822;-0.326;2023-03-14T05:08:51;3.17;;;1.15;;
44564;SDS011;30275;51.822;-0.326;2023-03-14T05:11:16;4.43;;;1.67;;
44564;SDS011;30275;51.822;-0.326;2023-03-14T05:13:43;4.18;;;1.05;;
44564;SDS011;30275;51.822;-0.326;2023-03-14T05:16:10;2.47;;;1.27;;
44564;SDS011;30275;51.822;-0.326;2023-03-14T05:18:36;5.57;;;1.70;;
44564;SDS011;30275;51.822;-0.326;2023-03-14T05:21:02;4.57;;;1.38;;
44564;SDS011;30275;51.822;-0.326;2023-03-14T05:23:28;7.28;;;2.42;;
44564;SDS011;30275;51.822;-0.326;2023-03-14T05:25:54;7.97;;;1.50;;
44564;SDS011;30275;51.822;-0.326;2023-03-14T05:28:20;13.05;;;1.70;;
44564;SDS011;30275;51.822;-0.326;2023-03-14T05:30:46;5.88;;;1.40;;
44564;SDS011;30275;51.822;-0.326;2023-03-14T05:33:11;4.57;;;1.27;;
44564;SDS011;30275;51.822;-0.326;2023-03-14T05:35:37;3.92;;;1.23;;
44564;SDS011;30275;51.822;-0.326;2023-03-14T05:38:02;6.60;;;1.20;;
44564;SDS011;30275;51.822;-0.326;2023-03-14T05:40:28;12.60;;;2.08;;
44564;SDS011;30275;51.822;-0.326;2023-03-14T05:42:54;6.72;;;1.27;;
44564;SDS011;30275;51.822;-0.326;2023-03-14T05:45:19;4.15;;;1.55;;
44564;SDS011;30275;51.822;-0.326;2023-03-14T05:47:45;2.70;;;1.13;;
44564;SDS011;30275;51.822;-0.326;2023-03-14T05:50:11;4.00;;;1.30;;
44564;SDS011;30275;51.822;-0.326;2023-03-14T05:52:37;6.30;;;1.02;;
44564;SDS011;30275;51.822;-0.326;2023-03-14T05:55:02;5.70;;;2.05;;
44564;SDS011;30275;51.822;-0.326;2023-03-14T05:57:28;8.68;;;1.70;;
44564;SDS011;30275;51.822;-0.326;2023-03-14T05:59:54;6.13;;;1.38;;
44564;SDS011;30275;51.822;-0.326;2023-03-14T06:02:19;5.90;;;1.42;;
44564;SDS011;30275;51.822;-0.326;2023-03-14T06:04:45;3.90;;;1.50;;
44564;SDS011;30275;51.822;-0.326;2023-03-14T06:07:10;7.40;;;1.55;;
44564;SDS011;30275;51.822;-0.326;2023-03-14T06:09:36;6.22;;;1.40;;
44564;SDS011;30275;51.822;-0.326;2023-03-14T06:12:01;4.55;;;1.58;;
44564;SDS011;30275;51.822;-0.326;2023-03-14T06:14:28;2.80;;;1.00;;
44564;SDS011;30275;51.822;-0.326;2023-03-14T06:16:54;8.00;;;1.48;;
44564;SDS011;30275;51.822;-0.326;2023-03-14T06:19:19;2.17;;;0.98;;
44564;SDS011;30275;51.822;-0.326;2023-03-14T06:21:45;3.78;;;1.17;;
44564;SDS011;30275;51.822;-0.326;2023-03-14T06:24:11;8.52;;;1.80;;
44564;SDS011;30275;51.822;-0.326;2023-03-14T06:26:37;3.58;;;1.73;;
44564;SDS011;30275;51.822;-0.326;2023-03-14T06:29:02;6.70;;;1.55;;
44564;SDS011;30275;51.822;-0.326;2023-03-14T06:31:31;3.67;;;1.15;;
44564;SDS011;30275;51.822;-0.326;2023-03-14T06:33:57;10.60;;;1.42;;
44564;SDS011;30275;51.822;-0.326;2023-03-14T06:36:24;8.02;;;1.42;;
44564;SDS011;30275;51.822;-0.326;2023-03-14T06:38:49;3.85;;;0.90;;
44564;SDS011;30275;51.822;-0.326;2023-03-14T06:41:15;6.10;;;1.73;;
44564;SDS011;30275;51.822;-0.326;2023-03-14T06:43:41;4.82;;;1.38;;
44564;SDS011;30275;51.822;-0.326;2023-03-14T06:46:06;6.50;;;1.42;;
44564;SDS011;30275;51.822;-0.326;2023-03-14T06:48:32;7.00;;;1.70;;
44564;SDS011;30275;51.822;-0.326;2023-03-14T06:50:58;6.45;;;1.83;;
44564;SDS011;30275;51.822;-0.326;2023-03-14T06:53:24;4.80;;;2.00;;
44564;SDS011;30275;51.822;-0.326;2023-03-14T06:55:49;5.10;;;1.65;;
44564;SDS011;30275;51.822;-0.326;2023-03-14T06:58:15;4.95;;;1.70;;
44564;SDS011;30275;51.822;-0.326;2023-03-14T07:00:41;7.75;;;2.30;;
44564;SDS011;30275;51.822;-0.326;2023-03-14T07:03:06;6.32;;;1.80;;
44564;SDS011;30275;51.822;-0.326;2023-03-14T07:05:32;3.70;;;1.48;;
44564;SDS011;30275;51.822;-0.326;2023-03-14T07:07:58;8.32;;;2.05;;
44564;SDS011;30275;51.822;-0.326;2023-03-14T07:10:23;6.32;;;2.00;;
44564;SDS011;30275;51.822;-0.326;2023-03-14T07:12:49;3.25;;;1.80;;
44564;SDS011;30275;51.822;-0.326;2023-03-14T07:15:14;1.92;;;1.50;;
44564;SDS011;30275;51.822;-0.326;2023-03-14T07:17:40;7.72;;;2.05;;
44564;SDS011;30275;51.822;-0.326;2023-03-14T07:20:06;4.38;;;1.80;;
44564;SDS011;30275;51.822;-0.326;2023-03-14T07:22:33;2.65;;;1.70;;
44564;SDS011;30275;51.822;-0.326;2023-03-14T07:24:59;4.30;;;2.00;;
44564;SDS011;30275;51.822;-0.326;2023-03-14T07:27:24;2.45;;;1.35;;
44564;SDS011;30275;51.822;-0.326;2023-03-14T07:29:50;4.40;;;1.65;;
44564;SDS011;30275;51.822;-0.326;2023-03-14T07:32:16;1.73;;;1.00;;
44564;SDS011;30275;51.822;-0.326;2023-03-14T07:34:41;0.80;;;0.80;;
44564;SDS011;30275;51.822;-0.326;2023-03-14T07:37:07;0.80;;;0.80;;
44564;SDS011;30275;51.822;-0.326;2023-03-14T07:39:33;1.00;;;0.80;;
44564;SDS011;30275;51.822;-0.326;2023-03-14T07:41:59;1.15;;;1.05;;
44564;SDS011;30275;51.822;-0.326;2023-03-14T07:44:25;1.77;;;0.90;;
44564;SDS011;30275;51.822;-0.326;2023-03-14T07:46:51;1.20;;;1.00;;
44564;SDS011;30275;51.822;-0.326;2023-03-14T07:49:17;1.15;;;1.02;;
44564;SDS011;30275;51.822;-0.326;2023-03-14T07:51:43;2.55;;;1.20;;
44564;SDS011;30275;51.822;-0.326;2023-03-14T07:54:11;1.73;;;1.20;;
44564;SDS011;30275;51.822;-0.326;2023-03-14T07:56:37;1.30;;;1.10;;
44564;SDS011;30275;51.822;-0.326;2023-03-14T07:59:02;1.45;;;0.90;;
44564;SDS011;30275;51.822;-0.326;2023-03-14T08:01:28;1.23;;;0.90;;
44564;SDS011;30275;51.822;-0.326;2023-03-14T08:03:54;1.10;;;0.90;;
44564;SDS011;30275;51.822;-0.326;2023-03-14T08:06:20;2.55;;;0.95;;
44564;SDS011;30275;51.822;-0.326;2023-03-14T08:08:46;1.73;;;0.90;;
44564;SDS011;30275;51.822;-0.326;2023-03-14T08:11:11;1.23;;;1.13;;
44564;SDS011;30275;51.822;-0.326;2023-03-14T08:13:37;1.48;;;1.13;;
44564;SDS011;30275;51.822;-0.326;2023-03-14T08:16:03;2.33;;;1.35;;
44564;SDS011;30275;51.822;-0.326;2023-03-14T08:18:29;1.70;;;1.00;;
44564;SDS011;30275;51.822;-0.326;2023-03-14T08:20:55;0.93;;;0.80;;
44564;SDS011;30275;51.822;-0.326;2023-03-14T08:23:21;1.33;;;0.90;;
44564;SDS011;30275;51.822;-0.326;2023-03-14T08:25:50;1.92;;;1.10;;
44564;SDS011;30275;51.822;-0.326;2023-03-14T08:28:17;2.60;;;1.10;;
44564;SDS011;30275;51.822;-0.326;2023-03-14T08:30:43;1.88;;;1.48;;
44564;SDS011;30275;51.822;-0.326;2023-03-14T08:33:09;2.20;;;1.50;;
44564;SDS011;30275;51.822;-0.326;2023-03-14T08:35:34;2.15;;;1.40;;
44564;SDS011;30275;51.822;-0.326;2023-03-14T08:38:02;3.17;;;1.60;;
44564;SDS011;30275;51.822;-0.326;2023-03-14T08:40:27;6.78;;;1.63;;
44564;SDS011;30275;51.822;-0.326;2023-03-14T08:42:53;11.00;;;2.70;;
44564;SDS011;30275;51.822;-0.326;2023-03-14T08:45:18;12.05;;;4.18;;
44564;SDS011;30275;51.822;-0.326;2023-03-14T08:47:44;9.15;;;2.55;;
44564;SDS011;30275;51.822;-0.326;2023-03-14T08:50:10;7.88;;;2.42;;
44564;SDS011;30275;51.822;-0.326;2023-03-14T08:52:36;2.83;;;1.23;;
44564;SDS011;30275;51.822;-0.326;2023-03-14T08:55:05;7.85;;;2.20;;
44564;SDS011;30275;51.822;-0.326;2023-03-14T08:57:31;8.75;;;1.70;;
44564;SDS011;30275;51.822;-0.326;2023-03-14T08:59:57;10.07;;;1.98;;
44564;SDS011;30275;51.822;-0.326;2023-03-14T09:02:23;10.82;;;4.70;;
44564;SDS011;30275;51.822;-0.326;2023-03-14T09:04:50;8.15;;;3.72;;
44564;SDS011;30275;51.822;-0.326;2023-03-14T09:07:16;12.93;;;3.63;;
44564;SDS011;30275;51.822;-0.326;2023-03-14T09:09:42;10.65;;;3.85;;
44564;SDS011;30275;51.822;-0.326;2023-03-14T09:12:08;13.02;;;4.15;;
44564;SDS011;30275;51.822;-0.326;2023-03-14T09:14:33;11.18;;;4.05;;
44564;SDS011;30275;51.822;-0.326;2023-03-14T09:16:59;9.23;;;3.03;;
44564;SDS011;30275;51.822;-0.326;2023-03-14T09:19:24;6.45;;;2.50;;
44564;SDS011;30275;51.822;-0.326;2023-03-14T09:21:50;14.38;;;3.83;;
44564;SDS011;30275;51.822;-0.326;2023-03-14T09:24:16;9.32;;;3.03;;
44564;SDS011;30275;51.822;-0.326;2023-03-14T09:26:42;6.57;;;2.28;;
44564;SDS011;30275;51.822;-0.326;2023-03-14T09:29:07;6.40;;;2.05;;
44564;SDS011;30275;51.822;-0.326;2023-03-14T09:31:33;16.17;;;3.33;;
44564;SDS011;30275;51.822;-0.326;2023-03-14T09:33:59;16.00;;;3.63;;
44564;SDS011;30275;51.822;-0.326;2023-03-14T09:36:25;18.50;;;4.28;;
44564;SDS011;30275;51.822;-0.326;2023-03-14T09:38:51;12.57;;;3.47;;
44564;SDS011;30275;51.822;-0.326;2023-03-14T09:41:27;7.85;;;2.65;;
44564;SDS011;30275;51.822;-0.326;2023-03-14T09:44:05;12.20;;;4.25;;
44564;SDS011;30275;51.822;-0.326;2023-03-14T09:46:44;13.48;;;3.80;;
44564;SDS011;30275;51.822;-0.326;2023-03-14T09:49:20;11.30;;;3.40;;
44564;SDS011;30275;51.822;-0.326;2023-03-14T09:51:50;10.85;;;3.22;;
44564;SDS011;30275;51.822;-0.326;2023-03-14T09:54:23;10.50;;;3.80;;
44564;SDS011;30275;51.822;-0.326;2023-03-14T09:56:49;13.82;;;3.70;;
44564;SDS011;30275;51.822;-0.326;2023-03-14T09:59:16;17.58;;;3.72;;
44564;SDS011;30275;51.822;-0.326;2023-03-14T10:01:42;7.93;;;2.88;;
44564;SDS011;30275;51.822;-0.326;2023-03-14T10:04:10;7.43;;;2.40;;
44564;SDS011;30275;51.822;-0.326;2023-03-14T10:06:40;12.05;;;2.33;;
44564;SDS011;30275;51.822;-0.326;2023-03-14T10:09:08;9.45;;;2.83;;
44564;SDS011;30275;51.822;-0.326;2023-03-14T10:11:40;7.97;;;2.55;;
44564;SDS011;30275;51.822;-0.326;2023-03-14T10:14:07;6.95;;;2.30;;
44564;SDS011;30275;51.822;-0.326;2023-03-14T10:16:35;9.80;;;2.72;;
44564;SDS011;30275;51.822;-0.326;2023-03-14T10:19:06;7.32;;;2.25;;
44564;SDS011;30275;51.822;-0.326;2023-03-14T10:21:36;5.10;;;2.13;;
44564;SDS011;30275;51.822;-0.326;2023-03-14T10:26:53;12.35;;;3.15;;
44564;SDS011;30275;51.822;-0.326;2023-03-14T10:29:20;8.25;;;2.95;;
44564;SDS011;30275;51.822;-0.326;2023-03-14T10:31:57;8.25;;;3.75;;
44564;SDS011;30275;51.822;-0.326;2023-03-14T10:34:27;6.90;;;2.60;;
44564;SDS011;30275;51.822;-0.326;2023-03-14T10:36:58;8.53;;;2.50;;
44564;SDS011;30275;51.822;-0.326;2023-03-14T10:44:41;4.78;;;1.80;;
44564;SDS011;30275;51.822;-0.326;2023-03-14T10:47:12;7.93;;;2.58;;
44564;SDS011;30275;51.822;-0.326;2023-03-14T10:49:43;6.28;;;1.63;;
44564;SDS011;30275;51.822;-0.326;2023-03-14T10:54:55;4.22;;;1.65;;
44564;SDS011;30275;51.822;-0.326;2023-03-14T10:57:23;6.25;;;2.28;;
44564;SDS011;30275;51.822;-0.326;2023-03-14T10:59:49;5.13;;;2.15;;
44564;SDS011;30275;51.822;-0.326;2023-03-14T11:07:21;7.05;;;1.77;;
44564;SDS011;30275;51.822;-0.326;2023-03-14T11:10:11;5.97;;;1.95;;
44564;SDS011;30275;51.822;-0.326;2023-03-14T11:13:25;9.07;;;2.10;;
44564;SDS011;30275;51.822;-0.326;2023-03-14T11:15:58;9.13;;;2.88;;
44564;SDS011;30275;51.822;-0.326;2023-03-14T11:24:33;6.90;;;1.98;;
44564;SDS011;30275;51.822;-0.326;2023-03-14T11:32:46;5.22;;;1.80;;
44564;SDS011;30275;51.822;-0.326;2023-03-14T11:35:30;3.25;;;1.55;;
44564;SDS011;30275;51.822;-0.326;2023-03-14T11:40:30;6.03;;;1.63;;
44564;SDS011;30275;51.822;-0.326;2023-03-14T11:45:45;5.50;;;1.50;;
44564;SDS011;30275;51.822;-0.326;2023-03-14T11:50:59;6.68;;;2.03;;
44564;SDS011;30275;51.822;-0.326;2023-03-14T11:56:26;8.05;;;2.08;;
44564;SDS011;30275;51.822;-0.326;2023-03-14T11:59:07;4.60;;;1.40;;
44564;SDS011;30275;51.822;-0.326;2023-03-14T12:07:12;8.37;;;2.10;;
44564;SDS011;30275;51.822;-0.326;2023-03-14T12:09:43;5.45;;;1.55;;
44564;SDS011;30275;51.822;-0.326;2023-03-14T12:12:11;5.60;;;1.88;;
44564;SDS011;30275;51.822;-0.326;2023-03-14T12:15:01;8.93;;;2.40;;
44564;SDS011;30275;51.822;-0.326;2023-03-14T12:17:35;6.82;;;2.10;;
44564;SDS011;30275;51.822;-0.326;2023-03-14T12:20:11;4.88;;;1.73;;
44564;SDS011;30275;51.822;-0.326;2023-03-14T12:22:47;6.45;;;1.92;;
44564;SDS011;30275;51.822;-0.326;2023-03-14T12:25:22;5.72;;;1.48;;
44564;SDS011;30275;51.822;-0.326;2023-03-14T12:35:37;6.50;;;1.35;;
44564;SDS011;30275;51.822;-0.326;2023-03-14T12:38:10;7.22;;;2.45;;
44564;SDS011;30275;51.822;-0.326;2023-03-14T12:40:58;8.25;;;2.78;;
44564;SDS011;30275;51.822;-0.326;2023-03-14T12:43:32;5.55;;;1.70;;
44564;SDS011;30275;51.822;-0.326;2023-03-14T12:48:41;8.13;;;1.50;;
44564;SDS011;30275;51.822;-0.326;2023-03-14T12:51:13;2.83;;;1.05;;
44564;SDS011;30275;51.822;-0.326;2023-03-14T12:54:03;5.53;;;1.83;;
44564;SDS011;30275;51.822;-0.326;2023-03-14T12:57:20;6.57;;;1.65;;
44564;SDS011;30275;51.822;-0.326;2023-03-14T13:02:47;5.10;;;1.27;;
44564;SDS011;30275;51.822;-0.326;2023-03-14T13:05:16;6.35;;;1.50;;
44564;SDS011;30275;51.822;-0.326;2023-03-14T13:10:18;5.70;;;1.52;;
44564;SDS011;30275;51.822;-0.326;2023-03-14T13:12:57;7.55;;;1.50;;
44564;SDS011;30275;51.822;-0.326;2023-03-14T13:15:27;5.32;;;1.90;;
44564;SDS011;30275;51.822;-0.326;2023-03-14T13:17:59;4.13;;;1.40;;
44564;SDS011;30275;51.822;-0.326;2023-03-14T13:20:35;6.55;;;1.65;;
44564;SDS011;30275;51.822;-0.326;2023-03-14T13:23:27;4.43;;;1.60;;
44564;SDS011;30275;51.822;-0.326;2023-03-14T13:25:54;3.50;;;1.20;;
44564;SDS011;30275;51.822;-0.326;2023-03-14T13:28:20;3.63;;;0.93;;
44564;SDS011;30275;51.822;-0.326;2023-03-14T13:30:47;7.13;;;1.17;;
44564;SDS011;30275;51.822;-0.326;2023-03-14T13:33:18;6.30;;;1.20;;
44564;SDS011;30275;51.822;-0.326;2023-03-14T13:35:46;6.10;;;1.63;;
44564;SDS011;30275;51.822;-0.326;2023-03-14T13:38:24;3.00;;;1.30;;
44564;SDS011;30275;51.822;-0.326;2023-03-14T13:40:53;6.07;;;2.10;;
44564;SDS011;30275;51.822;-0.326;2023-03-14T13:43:33;5.32;;;1.52;;
44564;SDS011;30275;51.822;-0.326;2023-03-14T13:46:04;4.60;;;1.58;;
44564;SDS011;30275;51.822;-0.326;2023-03-14T13:48:33;5.80;;;2.10;;
44564;SDS011;30275;51.822;-0.326;2023-03-14T13:51:03;4.97;;;1.67;;
44564;SDS011;30275;51.822;-0.326;2023-03-14T13:53:30;5.40;;;1.98;;
44564;SDS011;30275;51.822;-0.326;2023-03-14T13:56:00;6.10;;;1.50;;
44564;SDS011;30275;51.822;-0.326;2023-03-14T13:58:29;2.75;;;1.23;;
44564;SDS011;30275;51.822;-0.326;2023-03-14T14:01:00;3.25;;;1.40;;
44564;SDS011;30275;51.822;-0.326;2023-03-14T14:03:50;5.82;;;1.55;;
44564;SDS011;30275;51.822;-0.326;2023-03-14T14:06:29;4.32;;;1.38;;
44564;SDS011;30275;51.822;-0.326;2023-03-14T14:09:02;6.63;;;1.80;;
44564;SDS011;30275;51.822;-0.326;2023-03-14T14:11:37;6.95;;;1.90;;
44564;SDS011;30275;51.822;-0.326;2023-03-14T14:14:12;5.72;;;1.30;;
44564;SDS011;30275;51.822;-0.326;2023-03-14T14:16:43;5.55;;;1.98;;
44564;SDS011;30275;51.822;-0.326;2023-03-14T14:19:10;4.28;;;1.33;;
44564;SDS011;30275;51.822;-0.326;2023-03-14T14:21:37;3.78;;;1.63;;
44564;SDS011;30275;51.822;-0.326;2023-03-14T14:24:03;3.95;;;1.30;;
44564;SDS011;30275;51.822;-0.326;2023-03-14T14:26:29;4.20;;;1.50;;
44564;SDS011;30275;51.822;-0.326;2023-03-14T14:29:00;5.32;;;1.65;;
44564;SDS011;30275;51.822;-0.326;2023-03-14T14:31:27;4.33;;;1.53;;
44564;SDS011;30275;51.822;-0.326;2023-03-14T14:36:36;4.85;;;1.50;;
44564;SDS011;30275;51.822;-0.326;2023-03-14T14:39:09;5.55;;;1.70;;
44564;SDS011;30275;51.822;-0.326;2023-03-14T14:41:45;4.72;;;1.52;;
44564;SDS011;30275;51.822;-0.326;2023-03-14T14:44:16;6.25;;;1.92;;
44564;SDS011;30275;51.822;-0.326;2023-03-14T14:46:43;5.70;;;1.67;;
44564;SDS011;30275;51.822;-0.326;2023-03-14T14:49:10;5.82;;;1.85;;
44564;SDS011;30275;51.822;-0.326;2023-03-14T14:51:42;5.28;;;1.80;;
44564;SDS011;30275;51.822;-0.326;2023-03-14T14:54:32;4.13;;;1.35;;
44564;SDS011;30275;51.822;-0.326;2023-03-14T14:57:01;6.57;;;2.45;;
44564;SDS011;30275;51.822;-0.326;2023-03-14T14:59:29;4.70;;;1.70;;
44564;SDS011;30275;51.822;-0.326;2023-03-14T15:01:56;6.20;;;1.63;;
44564;SDS011;30275;51.822;-0.326;2023-03-14T15:04:23;4.40;;;1.73;;
44564;SDS011;30275;51.822;-0.326;2023-03-14T15:06:49;5.13;;;1.83;;
44564;SDS011;30275;51.822;-0.326;2023-03-14T15:09:15;3.55;;;1.40;;
44564;SDS011;30275;51.822;-0.326;2023-03-14T15:11:42;4.53;;;1.77;;
44564;SDS011;30275;51.822;-0.326;2023-03-14T15:14:08;5.97;;;1.40;;
44564;SDS011;30275;51.822;-0.326;2023-03-14T15:16:33;4.68;;;1.77;;
44564;SDS011;30275;51.822;-0.326;2023-03-14T15:19:01;5.18;;;1.60;;
44564;SDS011;30275;51.822;-0.326;2023-03-14T15:21:30;3.60;;;1.02;;
44564;SDS011;30275;51.822;-0.326;2023-03-14T15:23:57;3.95;;;1.50;;
44564;SDS011;30275;51.822;-0.326;2023-03-14T15:26:23;7.82;;;1.63;;
44564;SDS011;30275;51.822;-0.326;2023-03-14T15:28:50;6.63;;;1.80;;
44564;SDS011;30275;51.822;-0.326;2023-03-14T15:31:17;4.78;;;1.83;;
44564;SDS011;30275;51.822;-0.326;2023-03-14T15:33:44;2.60;;;1.27;;
44564;SDS011;30275;51.822;-0.326;2023-03-14T15:36:29;5.38;;;1.70;;
44564;SDS011;30275;51.822;-0.326;2023-03-14T15:38:57;2.65;;;1.10;;
44564;SDS011;30275;51.822;-0.326;2023-03-14T15:41:24;4.65;;;1.35;;
44564;SDS011;30275;51.822;-0.326;2023-03-14T15:43:51;4.90;;;1.83;;
44564;SDS011;30275;51.822;-0.326;2023-03-14T15:46:17;4.03;;;1.15;;
44564;SDS011;30275;51.822;-0.326;2023-03-14T15:48:43;4.65;;;1.42;;
44564;SDS011;30275;51.822;-0.326;2023-03-14T15:51:10;3.90;;;1.27;;
44564;SDS011;30275;51.822;-0.326;2023-03-14T15:53:36;4.20;;;1.67;;
44564;SDS011;30275;51.822;-0.326;2023-03-14T15:56:03;3.85;;;1.13;;